TimeCST,TemperatureF,Dew PointF,Humidity,Sea Level PressureIn,VisibilityMPH,Wind Direction,Wind SpeedMPH,Gust SpeedMPH,PrecipitationIn,Events,Conditions,WindDirDegrees,DateUTC
12:15 AM,32.5,29.8,90,30.13,10.0,North,8.1,-,N/A,,Scattered Clouds,10,2013-11-11 06:15:00
12:35 AM,34.0,32.0,92,30.15,10.0,North,9.2,-,N/A,,Clear,350,2013-11-11 06:35:00
12:55 AM,34.2,32.0,92,30.16,10.0,North,9.2,-,N/A,,Clear,350,2013-11-11 06:55:00
1:15 AM,34.7,32.4,91,30.16,10.0,North,9.2,-,N/A,,Scattered Clouds,350,2013-11-11 07:15:00
1:35 AM,35.1,32.5,91,30.17,10.0,North,10.4,-,N/A,,Clear,360,2013-11-11 07:35:00
1:55 AM,34.5,32.0,90,30.17,10.0,North,9.2,-,N/A,,Clear,360,2013-11-11 07:55:00
2:15 AM,33.8,31.8,92,30.17,10.0,North,8.1,-,N/A,,Clear,360,2013-11-11 08:15:00
2:35 AM,34.0,32.0,92,30.17,10.0,North,8.1,-,N/A,,Scattered Clouds,10,2013-11-11 08:35:00
2:55 AM,34.2,32.0,92,30.18,10.0,NNE,10.4,-,N/A,,Mostly Cloudy,20,2013-11-11 08:55:00
3:15 AM,34.0,31.6,91,30.19,10.0,North,10.4,-,N/A,,Overcast,10,2013-11-11 09:15:00
3:35 AM,32.9,30.9,92,30.22,10.0,North,15.0,21.9,N/A,,Overcast,10,2013-11-11 09:35:00
3:55 AM,32.0,30.2,93,30.23,10.0,NNE,15.0,24.2,N/A,,Overcast,20,2013-11-11 09:55:00
4:15 AM,31.5,29.5,92,30.24,10.0,NNE,16.1,23.0,N/A,,Overcast,20,2013-11-11 10:15:00
4:35 AM,30.9,29.5,94,30.25,7.0,North,20.7,26.5,N/A,,Overcast,10,2013-11-11 10:35:00
4:55 AM,29.5,28.2,95,30.27,7.0,NNE,16.1,-,N/A,,Overcast,20,2013-11-11 10:55:00
5:15 AM,28.6,27.5,96,30.29,7.0,North,20.7,26.5,N/A,,Overcast,10,2013-11-11 11:15:00
5:35 AM,27.9,26.4,94,30.31,10.0,NNE,12.7,-,N/A,,Overcast,20,2013-11-11 11:35:00
5:55 AM,27.1,25.3,93,30.32,10.0,NNE,17.3,23.0,N/A,,Overcast,20,2013-11-11 11:55:00
6:15 AM,26.6,23.9,90,30.33,10.0,North,18.4,25.3,N/A,,Overcast,10,2013-11-11 12:15:00
6:35 AM,26.1,22.6,87,30.34,10.0,North,16.1,21.9,N/A,,Overcast,10,2013-11-11 12:35:00
6:55 AM,25.5,21.9,86,30.35,10.0,NNE,11.5,17.3,N/A,,Overcast,20,2013-11-11 12:55:00
7:15 AM,25.3,21.7,86,30.36,10.0,North,15.0,21.9,N/A,,Overcast,10,2013-11-11 13:15:00
7:35 AM,24.8,20.5,84,30.38,10.0,NNE,15.0,-,N/A,,Overcast,20,2013-11-11 13:35:00
7:55 AM,24.3,20.1,84,30.40,10.0,NNE,16.1,-,N/A,,Overcast,20,2013-11-11 13:55:00
8:15 AM,24.1,20.1,85,30.40,10.0,NNE,12.7,18.4,N/A,,Overcast,20,2013-11-11 14:15:00
8:35 AM,23.5,19.4,84,30.43,10.0,NNE,12.7,-,N/A,,Overcast,20,2013-11-11 14:35:00
8:55 AM,23.4,19.2,84,30.44,10.0,North,16.1,21.9,N/A,,Overcast,10,2013-11-11 14:55:00
9:15 AM,22.8,18.5,83,30.45,10.0,NNE,13.8,19.6,N/A,,Overcast,20,2013-11-11 15:15:00
9:35 AM,23.0,18.0,81,30.46,10.0,North,12.7,19.6,N/A,,Overcast,10,2013-11-11 15:35:00
9:55 AM,22.6,17.4,80,30.46,10.0,NNE,12.7,-,N/A,,Overcast,30,2013-11-11 15:55:00
10:15 AM,22.6,17.1,79,30.48,10.0,North,16.1,21.9,N/A,,Overcast,10,2013-11-11 16:15:00
10:35 AM,23.0,17.1,78,30.49,10.0,NNE,13.8,-,N/A,,Overcast,30,2013-11-11 16:35:00
10:55 AM,23.9,16.7,74,30.50,10.0,North,13.8,18.4,N/A,,Overcast,10,2013-11-11 16:55:00
11:15 AM,23.4,16.0,73,30.50,10.0,North,11.5,20.7,N/A,,Overcast,10,2013-11-11 17:15:00
11:35 AM,24.1,16.5,73,30.51,10.0,North,15.0,20.7,N/A,,Overcast,360,2013-11-11 17:35:00
11:55 AM,23.9,16.5,73,30.52,10.0,North,12.7,18.4,N/A,,Overcast,10,2013-11-11 17:55:00
12:15 PM,25.5,17.2,71,30.52,10.0,North,13.8,20.7,N/A,,Overcast,360,2013-11-11 18:15:00
12:35 PM,25.3,17.2,71,30.52,10.0,North,12.7,-,N/A,,Overcast,10,2013-11-11 18:35:00
12:55 PM,25.3,17.6,72,30.53,10.0,North,15.0,-,N/A,,Overcast,360,2013-11-11 18:55:00
1:15 PM,25.2,18.3,75,30.52,10.0,North,16.1,-,N/A,Snow,Light Snow,360,2013-11-11 19:15:00
1:35 PM,25.5,18.0,73,30.53,10.0,North,15.0,-,N/A,Snow,Light Snow,360,2013-11-11 19:35:00
1:55 PM,25.5,17.8,72,30.54,10.0,North,15.0,18.4,N/A,,Overcast,360,2013-11-11 19:55:00
2:15 PM,25.3,16.9,70,30.54,10.0,North,16.1,-,N/A,,Overcast,360,2013-11-11 20:15:00
2:35 PM,24.4,16.2,71,30.54,10.0,North,12.7,-,N/A,,Overcast,360,2013-11-11 20:35:00
2:55 PM,25.2,16.0,68,30.54,10.0,North,13.8,19.6,N/A,,Overcast,360,2013-11-11 20:55:00
3:15 PM,24.6,14.9,67,30.55,10.0,North,15.0,19.6,N/A,,Scattered Clouds,360,2013-11-11 21:15:00
3:35 PM,25.2,14.4,64,30.55,10.0,North,13.8,21.9,N/A,,Clear,350,2013-11-11 21:35:00
3:55 PM,24.6,12.4,60,30.56,10.0,North,15.0,19.6,N/A,,Clear,10,2013-11-11 21:55:00
4:15 PM,24.1,10.8,57,30.57,10.0,North,13.8,19.6,N/A,,Clear,360,2013-11-11 22:15:00
4:35 PM,23.9,11.3,59,30.57,10.0,North,12.7,-,N/A,,Scattered Clouds,360,2013-11-11 22:35:00
4:55 PM,23.5,11.5,60,30.58,10.0,North,9.2,-,N/A,,Scattered Clouds,10,2013-11-11 22:55:00
5:15 PM,22.8,10.2,59,30.60,10.0,North,11.5,-,N/A,,Clear,10,2013-11-11 23:15:00
5:35 PM,22.1,9.9,59,30.60,10.0,North,10.4,-,N/A,,Clear,360,2013-11-11 23:35:00
5:55 PM,22.1,10.0,60,30.62,10.0,North,8.1,-,N/A,,Clear,350,2013-11-11 23:55:00
6:15 PM,22.1,10.0,60,30.62,10.0,North,6.9,-,N/A,,Clear,360,2013-11-12 00:15:00
6:35 PM,21.2,10.8,64,30.63,10.0,North,6.9,-,N/A,,Clear,360,2013-11-12 00:35:00
6:55 PM,19.9,11.3,69,30.64,10.0,North,5.8,-,N/A,,Clear,350,2013-11-12 00:55:00
7:15 PM,19.8,12.0,72,30.64,10.0,NNW,5.8,-,N/A,,Clear,340,2013-11-12 01:15:00
7:35 PM,18.5,12.6,78,30.65,10.0,North,5.8,-,N/A,,Clear,350,2013-11-12 01:35:00
7:55 PM,18.9,12.9,78,30.66,10.0,North,4.6,-,N/A,,Clear,350,2013-11-12 01:55:00
8:15 PM,18.1,11.1,74,30.66,10.0,North,3.5,-,N/A,,Clear,360,2013-11-12 02:15:00
8:35 PM,18.0,10.4,72,30.67,10.0,North,3.5,-,N/A,,Clear,360,2013-11-12 02:35:00
8:55 PM,18.0,9.5,70,30.67,10.0,Calm,Calm,-,N/A,,Clear,0,2013-11-12 02:55:00
9:15 PM,17.6,8.6,68,30.69,10.0,NNW,4.6,-,N/A,,Clear,330,2013-11-12 03:15:00
9:35 PM,17.2,9.0,70,30.71,10.0,NNW,3.5,-,N/A,,Clear,330,2013-11-12 03:35:00
9:55 PM,16.7,9.1,72,30.71,10.0,Calm,Calm,-,N/A,,Clear,0,2013-11-12 03:55:00
10:15 PM,16.7,9.0,72,30.72,10.0,Calm,Calm,-,N/A,,Clear,0,2013-11-12 04:15:00
10:35 PM,15.8,9.3,76,30.72,10.0,Calm,Calm,-,N/A,,Clear,0,2013-11-12 04:35:00
10:55 PM,15.4,9.5,77,30.72,10.0,Calm,Calm,-,N/A,,Clear,0,2013-11-12 04:55:00
11:15 PM,15.8,9.1,75,30.72,10.0,Calm,Calm,-,N/A,,Clear,0,2013-11-12 05:15:00
11:35 PM,14.9,9.7,80,30.72,10.0,West,3.5,-,N/A,,Clear,270,2013-11-12 05:35:00
11:55 PM,14.5,9.9,82,30.72,10.0,West,3.5,-,N/A,,Clear,270,2013-11-12 05:55:00